sensor_id;sensor_type;location;lat;lon;timestamp;temperature;humidity
20528;DHT22;23612;50.894;10.700;2023-08-06T00:02:12;13.80;99.90
20528;DHT22;23612;50.894;10.700;2023-08-06T00:04:38;13.80;99.90
20528;DHT22;23612;50.894;10.700;2023-08-06T00:07:04;13.70;99.90
20528;DHT22;23612;50.894;10.700;2023-08-06T00:09:29;13.60;99.90
20528;DHT22;23612;50.894;10.700;2023-08-06T00:11:55;13.60;99.90
20528;DHT22;23612;50.894;10.700;2023-08-06T00:14:20;13.50;99.90
20528;DHT22;23612;50.894;10.700;2023-08-06T00:16:46;13.50;99.90
20528;DHT22;23612;50.894;10.700;2023-08-06T00:19:11;13.50;99.90
20528;DHT22;23612;50.894;10.700;2023-08-06T00:21:37;13.50;99.90
20528;DHT22;23612;50.894;10.700;2023-08-06T00:24:03;13.50;99.90
20528;DHT22;23612;50.894;10.700;2023-08-06T00:26:28;13.50;99.90
20528;DHT22;23612;50.894;10.700;2023-08-06T00:28:54;13.40;99.90
20528;DHT22;23612;50.894;10.700;2023-08-06T00:31:19;13.40;99.90
20528;DHT22;23612;50.894;10.700;2023-08-06T00:33:45;13.40;99.90
20528;DHT22;23612;50.894;10.700;2023-08-06T00:36:10;13.40;99.90
20528;DHT22;23612;50.894;10.700;2023-08-06T00:38:36;13.30;99.90
20528;DHT22;23612;50.894;10.700;2023-08-06T00:41:01;13.40;99.90
20528;DHT22;23612;50.894;10.700;2023-08-06T00:43:27;13.30;99.90
20528;DHT22;23612;50.894;10.700;2023-08-06T00:45:52;13.40;99.90
20528;DHT22;23612;50.894;10.700;2023-08-06T00:48:18;13.40;99.90
20528;DHT22;23612;50.894;10.700;2023-08-06T00:50:44;13.40;99.90
20528;DHT22;23612;50.894;10.700;2023-08-06T00:53:10;13.50;99.90
20528;DHT22;23612;50.894;10.700;2023-08-06T00:55:36;13.50;99.90
20528;DHT22;23612;50.894;10.700;2023-08-06T00:58:01;13.40;99.90
20528;DHT22;23612;50.894;10.700;2023-08-06T01:00:27;13.50;99.90
20528;DHT22;23612;50.894;10.700;2023-08-06T01:02:53;13.40;99.90
20528;DHT22;23612;50.894;10.700;2023-08-06T01:05:20;13.40;99.90
20528;DHT22;23612;50.894;10.700;2023-08-06T01:15:30;13.30;99.90
20528;DHT22;23612;50.894;10.700;2023-08-06T01:17:58;13.30;99.90
20528;DHT22;23612;50.894;10.700;2023-08-06T01:20:29;13.40;99.90
20528;DHT22;23612;50.894;10.700;2023-08-06T01:22:55;13.40;99.90
20528;DHT22;23612;50.894;10.700;2023-08-06T01:25:20;13.40;99.90
20528;DHT22;23612;50.894;10.700;2023-08-06T01:27:48;13.40;99.90
20528;DHT22;23612;50.894;10.700;2023-08-06T01:30:28;13.30;99.90
20528;DHT22;23612;50.894;10.700;2023-08-06T01:32:58;13.30;99.90
20528;DHT22;23612;50.894;10.700;2023-08-06T01:35:27;13.30;99.90
20528;DHT22;23612;50.894;10.700;2023-08-06T01:37:52;13.30;99.90
20528;DHT22;23612;50.894;10.700;2023-08-06T01:40:18;13.30;99.90
20528;DHT22;23612;50.894;10.700;2023-08-06T01:42:43;13.20;99.90
20528;DHT22;23612;50.894;10.700;2023-08-06T01:45:09;13.20;99.90
20528;DHT22;23612;50.894;10.700;2023-08-06T01:47:35;13.20;99.90
20528;DHT22;23612;50.894;10.700;2023-08-06T01:50:01;13.20;99.90
20528;DHT22;23612;50.894;10.700;2023-08-06T01:52:27;13.20;99.90
20528;DHT22;23612;50.894;10.700;2023-08-06T01:54:54;13.20;99.90
20528;DHT22;23612;50.894;10.700;2023-08-06T01:57:19;13.20;99.90
20528;DHT22;23612;50.894;10.700;2023-08-06T01:59:45;13.20;99.90
20528;DHT22;23612;50.894;10.700;2023-08-06T02:02:10;13.30;99.90
20528;DHT22;23612;50.894;10.700;2023-08-06T02:04:36;13.40;99.90
20528;DHT22;23612;50.894;10.700;2023-08-06T02:07:01;13.40;99.90
20528;DHT22;23612;50.894;10.700;2023-08-06T02:09:27;13.40;99.90
20528;DHT22;23612;50.894;10.700;2023-08-06T02:11:52;13.30;99.90
20528;DHT22;23612;50.894;10.700;2023-08-06T02:14:18;13.30;99.90
20528;DHT22;23612;50.894;10.700;2023-08-06T02:16:43;13.30;99.90
20528;DHT22;23612;50.894;10.700;2023-08-06T02:19:09;13.30;99.90
20528;DHT22;23612;50.894;10.700;2023-08-06T02:21:34;13.20;99.90
20528;DHT22;23612;50.894;10.700;2023-08-06T02:24:00;13.30;99.90
20528;DHT22;23612;50.894;10.700;2023-08-06T02:26:26;13.40;99.90
20528;DHT22;23612;50.894;10.700;2023-08-06T02:28:51;13.40;99.90
20528;DHT22;23612;50.894;10.700;2023-08-06T02:31:17;13.50;99.90
20528;DHT22;23612;50.894;10.700;2023-08-06T02:33:42;13.60;99.90
20528;DHT22;23612;50.894;10.700;2023-08-06T02:36:08;13.60;99.90
20528;DHT22;23612;50.894;10.700;2023-08-06T02:38:33;13.50;99.90
20528;DHT22;23612;50.894;10.700;2023-08-06T02:40:59;13.50;99.90
20528;DHT22;23612;50.894;10.700;2023-08-06T02:43:27;13.50;99.90
20528;DHT22;23612;50.894;10.700;2023-08-06T02:45:57;13.40;99.90
20528;DHT22;23612;50.894;10.700;2023-08-06T02:48:23;13.30;99.90
20528;DHT22;23612;50.894;10.700;2023-08-06T02:50:48;13.20;99.90
20528;DHT22;23612;50.894;10.700;2023-08-06T02:53:14;13.20;99.90
20528;DHT22;23612;50.894;10.700;2023-08-06T02:55:48;13.20;99.90
20528;DHT22;23612;50.894;10.700;2023-08-06T02:58:14;13.20;99.90
20528;DHT22;23612;50.894;10.700;2023-08-06T03:00:40;13.20;99.90
20528;DHT22;23612;50.894;10.700;2023-08-06T03:03:06;13.10;99.90
20528;DHT22;23612;50.894;10.700;2023-08-06T03:05:31;13.20;99.90
20528;DHT22;23612;50.894;10.700;2023-08-06T03:07:57;13.20;99.90
20528;DHT22;23612;50.894;10.700;2023-08-06T03:10:22;13.20;99.90
20528;DHT22;23612;50.894;10.700;2023-08-06T03:12:48;13.20;99.90
20528;DHT22;23612;50.894;10.700;2023-08-06T03:15:13;13.30;99.90
20528;DHT22;23612;50.894;10.700;2023-08-06T03:17:39;13.40;99.90
20528;DHT22;23612;50.894;10.700;2023-08-06T03:20:05;13.50;99.90
20528;DHT22;23612;50.894;10.700;2023-08-06T03:22:31;13.50;99.90
20528;DHT22;23612;50.894;10.700;2023-08-06T03:24:57;13.60;99.90
20528;DHT22;23612;50.894;10.700;2023-08-06T03:27:22;13.60;99.90
20528;DHT22;23612;50.894;10.700;2023-08-06T03:29:51;13.60;99.90
20528;DHT22;23612;50.894;10.700;2023-08-06T03:32:16;13.60;99.90
20528;DHT22;23612;50.894;10.700;2023-08-06T03:34:42;13.60;99.90
20528;DHT22;23612;50.894;10.700;2023-08-06T03:37:07;13.60;99.90
20528;DHT22;23612;50.894;10.700;2023-08-06T03:39:33;13.50;99.90
20528;DHT22;23612;50.894;10.700;2023-08-06T03:41:58;13.40;99.90
20528;DHT22;23612;50.894;10.700;2023-08-06T03:44:24;13.30;99.90
20528;DHT22;23612;50.894;10.700;2023-08-06T03:46:49;13.40;99.90
20528;DHT22;23612;50.894;10.700;2023-08-06T03:49:15;13.40;99.90
20528;DHT22;23612;50.894;10.700;2023-08-06T03:51:40;13.50;99.90
20528;DHT22;23612;50.894;10.700;2023-08-06T03:54:06;13.50;99.90
20528;DHT22;23612;50.894;10.700;2023-08-06T03:56:31;13.50;99.90
20528;DHT22;23612;50.894;10.700;2023-08-06T03:58:57;13.60;99.90
20528;DHT22;23612;50.894;10.700;2023-08-06T04:01:22;13.60;99.90
20528;DHT22;23612;50.894;10.700;2023-08-06T04:03:48;13.60;99.90
20528;DHT22;23612;50.894;10.700;2023-08-06T04:06:13;13.60;99.90
20528;DHT22;23612;50.894;10.700;2023-08-06T04:08:39;13.60;99.90
20528;DHT22;23612;50.894;10.700;2023-08-06T04:11:04;13.60;99.90
20528;DHT22;23612;50.894;10.700;2023-08-06T04:13:30;13.70;99.90
20528;DHT22;23612;50.894;10.700;2023-08-06T04:16:01;13.70;99.90
20528;DHT22;23612;50.894;10.700;2023-08-06T04:18:26;13.70;99.90
20528;DHT22;23612;50.894;10.700;2023-08-06T04:20:52;13.70;99.90
20528;DHT22;23612;50.894;10.700;2023-08-06T04:23:17;13.70;99.90
20528;DHT22;23612;50.894;10.700;2023-08-06T04:25:43;13.70;99.90
20528;DHT22;23612;50.894;10.700;2023-08-06T04:28:08;13.60;99.90
20528;DHT22;23612;50.894;10.700;2023-08-06T04:30:34;13.60;99.90
20528;DHT22;23612;50.894;10.700;2023-08-06T04:33:00;13.60;99.90
20528;DHT22;23612;50.894;10.700;2023-08-06T04:35:25;13.50;99.90
20528;DHT22;23612;50.894;10.700;2023-08-06T04:37:51;13.60;99.90
20528;DHT22;23612;50.894;10.700;2023-08-06T04:40:16;13.60;99.90
20528;DHT22;23612;50.894;10.700;2023-08-06T04:42:42;13.70;99.90
20528;DHT22;23612;50.894;10.700;2023-08-06T04:45:08;13.70;99.90
20528;DHT22;23612;50.894;10.700;2023-08-06T04:47:33;13.60;99.90
20528;DHT22;23612;50.894;10.700;2023-08-06T04:49:59;13.60;99.90
20528;DHT22;23612;50.894;10.700;2023-08-06T04:52:24;13.50;99.90
20528;DHT22;23612;50.894;10.700;2023-08-06T04:54:53;13.60;99.90
20528;DHT22;23612;50.894;10.700;2023-08-06T04:57:19;13.50;99.90
20528;DHT22;23612;50.894;10.700;2023-08-06T04:59:45;13.50;99.90
20528;DHT22;23612;50.894;10.700;2023-08-06T05:02:10;13.50;99.90
20528;DHT22;23612;50.894;10.700;2023-08-06T05:04:36;13.50;99.90
20528;DHT22;23612;50.894;10.700;2023-08-06T05:07:02;13.50;99.90
20528;DHT22;23612;50.894;10.700;2023-08-06T05:09:27;13.60;99.90
20528;DHT22;23612;50.894;10.700;2023-08-06T05:11:53;13.60;99.90
20528;DHT22;23612;50.894;10.700;2023-08-06T05:14:18;13.60;99.90
20528;DHT22;23612;50.894;10.700;2023-08-06T05:16:44;13.60;99.90
20528;DHT22;23612;50.894;10.700;2023-08-06T05:19:09;13.70;99.90
20528;DHT22;23612;50.894;10.700;2023-08-06T05:21:35;13.80;99.90
20528;DHT22;23612;50.894;10.700;2023-08-06T05:24:00;13.90;99.90
20528;DHT22;23612;50.894;10.700;2023-08-06T05:26:25;14.00;99.90
20528;DHT22;23612;50.894;10.700;2023-08-06T05:28:51;14.00;99.90
20528;DHT22;23612;50.894;10.700;2023-08-06T05:31:16;14.10;99.90
20528;DHT22;23612;50.894;10.700;2023-08-06T05:33:42;14.20;99.90
20528;DHT22;23612;50.894;10.700;2023-08-06T05:36:07;14.20;99.90
20528;DHT22;23612;50.894;10.700;2023-08-06T05:38:33;14.20;99.90
20528;DHT22;23612;50.894;10.700;2023-08-06T05:40:59;14.30;99.90
20528;DHT22;23612;50.894;10.700;2023-08-06T05:43:24;14.30;99.90
20528;DHT22;23612;50.894;10.700;2023-08-06T05:45:50;14.40;99.90
20528;DHT22;23612;50.894;10.700;2023-08-06T05:48:16;14.40;99.90
20528;DHT22;23612;50.894;10.700;2023-08-06T05:50:41;14.50;99.90
20528;DHT22;23612;50.894;10.700;2023-08-06T05:53:07;14.50;99.90
20528;DHT22;23612;50.894;10.700;2023-08-06T05:55:33;14.60;99.90
20528;DHT22;23612;50.894;10.700;2023-08-06T05:57:59;14.60;99.90
20528;DHT22;23612;50.894;10.700;2023-08-06T06:00:24;14.70;99.90
20528;DHT22;23612;50.894;10.700;2023-08-06T06:02:50;14.70;99.90
20528;DHT22;23612;50.894;10.700;2023-08-06T06:05:15;14.80;99.90
20528;DHT22;23612;50.894;10.700;2023-08-06T06:07:41;14.80;99.90
20528;DHT22;23612;50.894;10.700;2023-08-06T06:10:07;14.90;99.90
20528;DHT22;23612;50.894;10.700;2023-08-06T06:12:32;14.90;99.90
20528;DHT22;23612;50.894;10.700;2023-08-06T06:14:58;15.00;99.90
20528;DHT22;23612;50.894;10.700;2023-08-06T06:17:24;15.10;99.90
20528;DHT22;23612;50.894;10.700;2023-08-06T06:19:50;15.10;99.90
20528;DHT22;23612;50.894;10.700;2023-08-06T06:22:15;15.20;99.90
20528;DHT22;23612;50.894;10.700;2023-08-06T06:24:41;15.30;99.90
20528;DHT22;23612;50.894;10.700;2023-08-06T06:27:06;15.50;99.90
20528;DHT22;23612;50.894;10.700;2023-08-06T06:29:32;15.60;99.90
20528;DHT22;23612;50.894;10.700;2023-08-06T06:31:57;15.80;99.90
20528;DHT22;23612;50.894;10.700;2023-08-06T06:34:23;16.10;99.90
20528;DHT22;23612;50.894;10.700;2023-08-06T06:36:48;16.20;99.90
20528;DHT22;23612;50.894;10.700;2023-08-06T06:39:15;16.50;99.90
20528;DHT22;23612;50.894;10.700;2023-08-06T06:41:41;16.90;99.90
20528;DHT22;23612;50.894;10.700;2023-08-06T06:44:06;17.30;99.90
20528;DHT22;23612;50.894;10.700;2023-08-06T06:46:32;17.80;99.90
20528;DHT22;23612;50.894;10.700;2023-08-06T06:48:57;18.30;99.90
20528;DHT22;23612;50.894;10.700;2023-08-06T06:51:23;18.90;99.90
20528;DHT22;23612;50.894;10.700;2023-08-06T06:53:48;19.80;99.90
20528;DHT22;23612;50.894;10.700;2023-08-06T06:56:14;20.60;99.90
20528;DHT22;23612;50.894;10.700;2023-08-06T06:58:39;21.20;99.90
20528;DHT22;23612;50.894;10.700;2023-08-06T07:01:06;21.60;99.90
20528;DHT22;23612;50.894;10.700;2023-08-06T07:03:32;21.80;99.90
20528;DHT22;23612;50.894;10.700;2023-08-06T07:05:58;22.40;99.90
20528;DHT22;23612;50.894;10.700;2023-08-06T07:08:24;22.80;99.90
20528;DHT22;23612;50.894;10.700;2023-08-06T07:10:50;23.40;99.90
20528;DHT22;23612;50.894;10.700;2023-08-06T07:13:15;23.90;99.90
20528;DHT22;23612;50.894;10.700;2023-08-06T07:15:42;24.30;99.90
20528;DHT22;23612;50.894;10.700;2023-08-06T07:18:07;24.70;99.90
20528;DHT22;23612;50.894;10.700;2023-08-06T07:20:33;24.90;99.90
20528;DHT22;23612;50.894;10.700;2023-08-06T07:23:00;24.90;99.90
20528;DHT22;23612;50.894;10.700;2023-08-06T07:25:25;24.80;99.90
20528;DHT22;23612;50.894;10.700;2023-08-06T07:27:51;24.70;99.90
20528;DHT22;23612;50.894;10.700;2023-08-06T07:30:17;24.60;99.90
20528;DHT22;23612;50.894;10.700;2023-08-06T07:32:43;24.80;99.90
20528;DHT22;23612;50.894;10.700;2023-08-06T07:35:09;24.30;99.90
20528;DHT22;23612;50.894;10.700;2023-08-06T07:37:38;24.20;99.90
20528;DHT22;23612;50.894;10.700;2023-08-06T07:40:04;24.00;99.90
20528;DHT22;23612;50.894;10.700;2023-08-06T07:42:30;23.90;99.90
20528;DHT22;23612;50.894;10.700;2023-08-06T07:44:57;23.70;99.90
20528;DHT22;23612;50.894;10.700;2023-08-06T07:47:23;23.70;99.90
20528;DHT22;23612;50.894;10.700;2023-08-06T07:49:48;24.00;99.90
20528;DHT22;23612;50.894;10.700;2023-08-06T07:52:14;24.10;99.90
20528;DHT22;23612;50.894;10.700;2023-08-06T07:54:40;23.80;99.90
20528;DHT22;23612;50.894;10.700;2023-08-06T07:57:05;23.20;99.90
20528;DHT22;23612;50.894;10.700;2023-08-06T07:59:31;23.30;99.90
20528;DHT22;23612;50.894;10.700;2023-08-06T08:01:57;23.90;99.90
20528;DHT22;23612;50.894;10.700;2023-08-06T08:04:23;23.70;99.90
20528;DHT22;23612;50.894;10.700;2023-08-06T08:06:49;23.70;99.90
20528;DHT22;23612;50.894;10.700;2023-08-06T08:09:14;23.50;99.90
20528;DHT22;23612;50.894;10.700;2023-08-06T08:11:41;23.90;99.90
20528;DHT22;23612;50.894;10.700;2023-08-06T08:14:07;24.20;99.90
20528;DHT22;23612;50.894;10.700;2023-08-06T08:16:32;24.30;99.90
20528;DHT22;23612;50.894;10.700;2023-08-06T08:18:58;24.80;99.90
20528;DHT22;23612;50.894;10.700;2023-08-06T08:21:24;24.90;99.90
20528;DHT22;23612;50.894;10.700;2023-08-06T08:23:53;24.30;99.90
20528;DHT22;23612;50.894;10.700;2023-08-06T08:26:18;23.70;99.90
20528;DHT22;23612;50.894;10.700;2023-08-06T08:28:44;23.70;99.90
20528;DHT22;23612;50.894;10.700;2023-08-06T08:31:10;24.20;99.90
20528;DHT22;23612;50.894;10.700;2023-08-06T08:33:37;24.60;99.90
20528;DHT22;23612;50.894;10.700;2023-08-06T08:36:03;24.60;99.90
20528;DHT22;23612;50.894;10.700;2023-08-06T08:38:28;23.90;99.90
20528;DHT22;23612;50.894;10.700;2023-08-06T08:40:54;23.40;99.90
20528;DHT22;23612;50.894;10.700;2023-08-06T08:43:21;23.00;99.90
20528;DHT22;23612;50.894;10.700;2023-08-06T08:45:50;22.50;99.90
20528;DHT22;23612;50.894;10.700;2023-08-06T08:48:18;22.10;99.90
20528;DHT22;23612;50.894;10.700;2023-08-06T08:50:48;22.00;99.90
20528;DHT22;23612;50.894;10.700;2023-08-06T08:53:15;22.70;99.90
20528;DHT22;23612;50.894;10.700;2023-08-06T08:55:43;23.50;99.90
20528;DHT22;23612;50.894;10.700;2023-08-06T08:58:09;24.10;99.90
20528;DHT22;23612;50.894;10.700;2023-08-06T09:00:34;23.90;99.90
20528;DHT22;23612;50.894;10.700;2023-08-06T09:03:00;24.30;99.90
20528;DHT22;23612;50.894;10.700;2023-08-06T09:05:29;25.20;99.90
20528;DHT22;23612;50.894;10.700;2023-08-06T09:08:03;25.50;99.90
20528;DHT22;23612;50.894;10.700;2023-08-06T09:10:29;25.40;99.90
20528;DHT22;23612;50.894;10.700;2023-08-06T09:12:56;25.90;99.90
20528;DHT22;23612;50.894;10.700;2023-08-06T09:15:24;26.10;99.90
20528;DHT22;23612;50.894;10.700;2023-08-06T09:17:52;25.90;99.90
20528;DHT22;23612;50.894;10.700;2023-08-06T09:20:17;26.30;99.90
20528;DHT22;23612;50.894;10.700;2023-08-06T09:22:43;26.20;99.90
20528;DHT22;23612;50.894;10.700;2023-08-06T09:25:09;26.60;99.90
20528;DHT22;23612;50.894;10.700;2023-08-06T09:27:36;27.20;99.90
20528;DHT22;23612;50.894;10.700;2023-08-06T09:30:03;27.60;99.90
20528;DHT22;23612;50.894;10.700;2023-08-06T09:32:45;28.00;99.90
20528;DHT22;23612;50.894;10.700;2023-08-06T09:35:15;28.50;99.90
20528;DHT22;23612;50.894;10.700;2023-08-06T09:37:41;29.40;98.70
20528;DHT22;23612;50.894;10.700;2023-08-06T09:40:24;29.60;98.30
20528;DHT22;23612;50.894;10.700;2023-08-06T09:42:51;28.70;97.10
20528;DHT22;23612;50.894;10.700;2023-08-06T09:45:16;27.40;98.10
20528;DHT22;23612;50.894;10.700;2023-08-06T09:47:42;26.30;99.90
20528;DHT22;23612;50.894;10.700;2023-08-06T09:50:20;25.90;99.90
20528;DHT22;23612;50.894;10.700;2023-08-06T09:52:50;25.20;99.90
20528;DHT22;23612;50.894;10.700;2023-08-06T09:55:16;25.40;99.90
20528;DHT22;23612;50.894;10.700;2023-08-06T09:57:42;26.30;99.90
20528;DHT22;23612;50.894;10.700;2023-08-06T10:00:09;27.40;99.90
20528;DHT22;23612;50.894;10.700;2023-08-06T10:02:39;28.30;99.90
20528;DHT22;23612;50.894;10.700;2023-08-06T10:05:06;29.00;98.90
20528;DHT22;23612;50.894;10.700;2023-08-06T10:07:32;29.20;96.70
20528;DHT22;23612;50.894;10.700;2023-08-06T10:09:58;29.00;95.70
20528;DHT22;23612;50.894;10.700;2023-08-06T10:12:25;28.90;95.40
20528;DHT22;23612;50.894;10.700;2023-08-06T10:14:54;29.40;94.90
20528;DHT22;23612;50.894;10.700;2023-08-06T10:17:22;29.40;95.20
20528;DHT22;23612;50.894;10.700;2023-08-06T10:19:48;29.20;94.60
20528;DHT22;23612;50.894;10.700;2023-08-06T10:22:15;29.70;93.70
20528;DHT22;23612;50.894;10.700;2023-08-06T10:25:08;29.80;92.90
20528;DHT22;23612;50.894;10.700;2023-08-06T10:27:35;30.20;92.40
20528;DHT22;23612;50.894;10.700;2023-08-06T10:30:24;30.60;91.70
20528;DHT22;23612;50.894;10.700;2023-08-06T10:38:07;31.00;87.10
20528;DHT22;23612;50.894;10.700;2023-08-06T10:40:33;30.50;88.10
20528;DHT22;23612;50.894;10.700;2023-08-06T10:43:03;29.40;89.80
20528;DHT22;23612;50.894;10.700;2023-08-06T10:45:29;27.90;90.60
20528;DHT22;23612;50.894;10.700;2023-08-06T10:47:56;26.60;93.30
20528;DHT22;23612;50.894;10.700;2023-08-06T10:50:25;25.90;94.20
20528;DHT22;23612;50.894;10.700;2023-08-06T10:52:51;25.10;95.30
20528;DHT22;23612;50.894;10.700;2023-08-06T10:55:25;24.50;97.30
20528;DHT22;23612;50.894;10.700;2023-08-06T10:57:51;24.40;99.60
20528;DHT22;23612;50.894;10.700;2023-08-06T11:00:16;24.50;99.90
20528;DHT22;23612;50.894;10.700;2023-08-06T11:02:42;24.20;99.90
20528;DHT22;23612;50.894;10.700;2023-08-06T11:05:09;23.90;99.90
20528;DHT22;23612;50.894;10.700;2023-08-06T11:07:35;23.50;99.90
20528;DHT22;23612;50.894;10.700;2023-08-06T11:10:03;23.20;99.90
20528;DHT22;23612;50.894;10.700;2023-08-06T11:12:29;22.90;99.90
20528;DHT22;23612;50.894;10.700;2023-08-06T11:14:54;22.40;99.90
20528;DHT22;23612;50.894;10.700;2023-08-06T11:17:21;21.60;99.90
20528;DHT22;23612;50.894;10.700;2023-08-06T11:19:46;21.10;99.90
20528;DHT22;23612;50.894;10.700;2023-08-06T11:22:14;20.50;99.90
20528;DHT22;23612;50.894;10.700;2023-08-06T11:24:39;20.10;99.90
20528;DHT22;23612;50.894;10.700;2023-08-06T11:27:12;19.90;99.90
20528;DHT22;23612;50.894;10.700;2023-08-06T11:29:38;19.70;99.90
20528;DHT22;23612;50.894;10.700;2023-08-06T11:32:07;19.60;99.90
20528;DHT22;23612;50.894;10.700;2023-08-06T11:34:32;19.50;99.90
20528;DHT22;23612;50.894;10.700;2023-08-06T11:36:58;19.30;99.90
20528;DHT22;23612;50.894;10.700;2023-08-06T11:39:24;19.10;99.90
20528;DHT22;23612;50.894;10.700;2023-08-06T11:41:50;19.20;99.90
20528;DHT22;23612;50.894;10.700;2023-08-06T11:44:18;19.30;99.90
20528;DHT22;23612;50.894;10.700;2023-08-06T11:46:55;19.90;99.90
20528;DHT22;23612;50.894;10.700;2023-08-06T11:49:40;21.80;99.90
20528;DHT22;23612;50.894;10.700;2023-08-06T11:52:13;23.90;99.90
20528;DHT22;23612;50.894;10.700;2023-08-06T11:54:38;24.90;99.90
20528;DHT22;23612;50.894;10.700;2023-08-06T11:57:07;25.20;99.90
20528;DHT22;23612;50.894;10.700;2023-08-06T11:59:33;25.80;99.90
20528;DHT22;23612;50.894;10.700;2023-08-06T12:02:03;27.20;99.90
20528;DHT22;23612;50.894;10.700;2023-08-06T12:04:31;28.10;99.90
20528;DHT22;23612;50.894;10.700;2023-08-06T12:07:05;29.10;99.90
20528;DHT22;23612;50.894;10.700;2023-08-06T12:09:33;29.40;99.90
20528;DHT22;23612;50.894;10.700;2023-08-06T12:11:59;29.30;99.90
20528;DHT22;23612;50.894;10.700;2023-08-06T12:14:24;29.30;99.90
20528;DHT22;23612;50.894;10.700;2023-08-06T12:16:50;28.90;99.80
20528;DHT22;23612;50.894;10.700;2023-08-06T12:19:15;28.30;99.90
20528;DHT22;23612;50.894;10.700;2023-08-06T12:21:41;27.50;99.90
20528;DHT22;23612;50.894;10.700;2023-08-06T12:24:06;26.50;99.90
20528;DHT22;23612;50.894;10.700;2023-08-06T12:26:33;25.60;99.90
20528;DHT22;23612;50.894;10.700;2023-08-06T12:28:59;24.40;99.90
20528;DHT22;23612;50.894;10.700;2023-08-06T12:31:24;23.10;99.90
20528;DHT22;23612;50.894;10.700;2023-08-06T12:33:50;22.70;99.90
20528;DHT22;23612;50.894;10.700;2023-08-06T12:36:15;22.40;99.90
20528;DHT22;23612;50.894;10.700;2023-08-06T12:38:41;22.20;99.90
20528;DHT22;23612;50.894;10.700;2023-08-06T12:41:06;22.10;99.90
20528;DHT22;23612;50.894;10.700;2023-08-06T12:43:32;22.50;99.90
20528;DHT22;23612;50.894;10.700;2023-08-06T12:45:57;23.10;99.90
20528;DHT22;23612;50.894;10.700;2023-08-06T12:48:23;23.70;99.90
20528;DHT22;23612;50.894;10.700;2023-08-06T12:50:48;24.50;99.90
20528;DHT22;23612;50.894;10.700;2023-08-06T12:53:14;25.40;99.90
20528;DHT22;23612;50.894;10.700;2023-08-06T12:55:41;26.50;99.90
20528;DHT22;23612;50.894;10.700;2023-08-06T12:58:06;27.10;99.90
20528;DHT22;23612;50.894;10.700;2023-08-06T13:00:32;27.40;99.90
20528;DHT22;23612;50.894;10.700;2023-08-06T13:02:57;27.00;99.90
20528;DHT22;23612;50.894;10.700;2023-08-06T13:05:23;26.70;99.90
20528;DHT22;23612;50.894;10.700;2023-08-06T13:07:49;26.30;99.90
20528;DHT22;23612;50.894;10.700;2023-08-06T13:10:14;26.50;99.90
20528;DHT22;23612;50.894;10.700;2023-08-06T13:12:40;26.20;99.90
20528;DHT22;23612;50.894;10.700;2023-08-06T13:15:06;25.50;99.90
20528;DHT22;23612;50.894;10.700;2023-08-06T13:17:32;25.00;99.90
20528;DHT22;23612;50.894;10.700;2023-08-06T13:19:57;24.40;99.90
20528;DHT22;23612;50.894;10.700;2023-08-06T13:22:23;24.00;99.90
20528;DHT22;23612;50.894;10.700;2023-08-06T13:24:48;23.30;99.90
20528;DHT22;23612;50.894;10.700;2023-08-06T13:27:14;22.60;99.90
20528;DHT22;23612;50.894;10.700;2023-08-06T13:29:39;21.90;99.90
20528;DHT22;23612;50.894;10.700;2023-08-06T13:32:05;21.40;99.90
20528;DHT22;23612;50.894;10.700;2023-08-06T13:34:31;20.80;99.90
20528;DHT22;23612;50.894;10.700;2023-08-06T13:36:56;20.40;99.90
20528;DHT22;23612;50.894;10.700;2023-08-06T13:39:22;20.20;99.90
20528;DHT22;23612;50.894;10.700;2023-08-06T13:41:47;20.20;99.90
20528;DHT22;23612;50.894;10.700;2023-08-06T13:44:13;20.10;99.90
20528;DHT22;23612;50.894;10.700;2023-08-06T13:46:40;20.10;99.90
20528;DHT22;23612;50.894;10.700;2023-08-06T13:49:06;20.10;99.90
20528;DHT22;23612;50.894;10.700;2023-08-06T13:51:31;20.10;99.90
20528;DHT22;23612;50.894;10.700;2023-08-06T13:53:59;20.10;99.90
20528;DHT22;23612;50.894;10.700;2023-08-06T13:56:24;20.10;99.90
20528;DHT22;23612;50.894;10.700;2023-08-06T13:58:50;20.10;99.90
20528;DHT22;23612;50.894;10.700;2023-08-06T14:01:17;20.30;99.90
20528;DHT22;23612;50.894;10.700;2023-08-06T14:03:44;20.60;99.90
20528;DHT22;23612;50.894;10.700;2023-08-06T14:06:09;20.80;99.90
20528;DHT22;23612;50.894;10.700;2023-08-06T14:08:35;20.60;99.90
20528;DHT22;23612;50.894;10.700;2023-08-06T14:11:00;20.50;99.90
20528;DHT22;23612;50.894;10.700;2023-08-06T14:13:26;20.60;99.90
20528;DHT22;23612;50.894;10.700;2023-08-06T14:15:52;20.90;99.90
20528;DHT22;23612;50.894;10.700;2023-08-06T14:18:17;21.10;99.90
20528;DHT22;23612;50.894;10.700;2023-08-06T14:20:43;21.20;99.90
20528;DHT22;23612;50.894;10.700;2023-08-06T14:23:09;21.30;99.90
20528;DHT22;23612;50.894;10.700;2023-08-06T14:25:35;21.10;99.90
20528;DHT22;23612;50.894;10.700;2023-08-06T14:28:01;21.00;99.90
20528;DHT22;23612;50.894;10.700;2023-08-06T14:30:26;20.90;99.90
20528;DHT22;23612;50.894;10.700;2023-08-06T14:32:52;20.90;99.90
20528;DHT22;23612;50.894;10.700;2023-08-06T14:35:17;20.70;99.90
20528;DHT22;23612;50.894;10.700;2023-08-06T14:37:43;20.30;99.90
20528;DHT22;23612;50.894;10.700;2023-08-06T14:40:11;20.10;99.90
20528;DHT22;23612;50.894;10.700;2023-08-06T14:42:36;20.00;99.90
20528;DHT22;23612;50.894;10.700;2023-08-06T14:45:02;20.00;99.90
20528;DHT22;23612;50.894;10.700;2023-08-06T14:47:29;20.00;99.90
20528;DHT22;23612;50.894;10.700;2023-08-06T14:49:54;19.90;99.90
20528;DHT22;23612;50.894;10.700;2023-08-06T14:52:20;19.60;99.90
20528;DHT22;23612;50.894;10.700;2023-08-06T14:54:45;19.50;99.90
20528;DHT22;23612;50.894;10.700;2023-08-06T14:57:11;19.50;99.90
20528;DHT22;23612;50.894;10.700;2023-08-06T14:59:38;19.20;99.90
20528;DHT22;23612;50.894;10.700;2023-08-06T15:02:04;19.20;99.90
20528;DHT22;23612;50.894;10.700;2023-08-06T15:04:30;19.10;99.90
20528;DHT22;23612;50.894;10.700;2023-08-06T15:06:55;18.90;99.90
20528;DHT22;23612;50.894;10.700;2023-08-06T15:09:21;18.80;99.90
20528;DHT22;23612;50.894;10.700;2023-08-06T15:11:47;18.90;99.90
20528;DHT22;23612;50.894;10.700;2023-08-06T15:14:13;19.20;99.90
20528;DHT22;23612;50.894;10.700;2023-08-06T15:16:40;19.50;99.90
20528;DHT22;23612;50.894;10.700;2023-08-06T15:19:05;19.50;99.90
20528;DHT22;23612;50.894;10.700;2023-08-06T15:21:31;19.60;99.90
20528;DHT22;23612;50.894;10.700;2023-08-06T15:23:56;19.60;99.90